sensor_id;sensor_type;location;lat;lon;timestamp;P1;durP1;ratioP1;P2;durP2;ratioP2
52210;SDS011;38179;52.756;6.906;2023-05-07T00:00:45;23.85;;;21.35;;
52210;SDS011;38179;52.756;6.906;2023-05-07T00:03:11;25.17;;;22.67;;
52210;SDS011;38179;52.756;6.906;2023-05-07T00:05:39;24.17;;;21.73;;
52210;SDS011;38179;52.756;6.906;2023-05-07T00:08:05;24.45;;;22.13;;
52210;SDS011;38179;52.756;6.906;2023-05-07T00:10:30;24.58;;;22.10;;
52210;SDS011;38179;52.756;6.906;2023-05-07T00:12:56;23.90;;;21.50;;
52210;SDS011;38179;52.756;6.906;2023-05-07T00:15:23;24.02;;;21.70;;
52210;SDS011;38179;52.756;6.906;2023-05-07T00:17:49;26.42;;;23.77;;
52210;SDS011;38179;52.756;6.906;2023-05-07T00:20:15;27.35;;;24.38;;
52210;SDS011;38179;52.756;6.906;2023-05-07T00:22:41;26.38;;;23.88;;
52210;SDS011;38179;52.756;6.906;2023-05-07T00:25:07;27.75;;;24.95;;
52210;SDS011;38179;52.756;6.906;2023-05-07T00:27:33;27.60;;;24.92;;
52210;SDS011;38179;52.756;6.906;2023-05-07T00:29:59;27.02;;;24.42;;
52210;SDS011;38179;52.756;6.906;2023-05-07T00:32:25;28.13;;;24.92;;
52210;SDS011;38179;52.756;6.906;2023-05-07T00:34:50;26.70;;;23.98;;
52210;SDS011;38179;52.756;6.906;2023-05-07T00:37:16;26.98;;;24.27;;
52210;SDS011;38179;52.756;6.906;2023-05-07T00:39:42;27.33;;;24.52;;
52210;SDS011;38179;52.756;6.906;2023-05-07T00:42:08;26.80;;;24.30;;
52210;SDS011;38179;52.756;6.906;2023-05-07T00:44:34;27.65;;;24.95;;
52210;SDS011;38179;52.756;6.906;2023-05-07T00:47:01;26.00;;;23.40;;
52210;SDS011;38179;52.756;6.906;2023-05-07T00:49:38;28.38;;;25.45;;
52210;SDS011;38179;52.756;6.906;2023-05-07T00:52:07;27.98;;;25.23;;
52210;SDS011;38179;52.756;6.906;2023-05-07T00:54:34;27.77;;;25.08;;
52210;SDS011;38179;52.756;6.906;2023-05-07T00:57:01;26.92;;;24.25;;
52210;SDS011;38179;52.756;6.906;2023-05-07T00:59:28;28.30;;;25.35;;
52210;SDS011;38179;52.756;6.906;2023-05-07T01:01:55;27.92;;;25.08;;
52210;SDS011;38179;52.756;6.906;2023-05-07T01:04:21;28.70;;;25.83;;
52210;SDS011;38179;52.756;6.906;2023-05-07T01:06:47;29.00;;;25.95;;
52210;SDS011;38179;52.756;6.906;2023-05-07T01:09:13;28.75;;;25.88;;
52210;SDS011;38179;52.756;6.906;2023-05-07T01:11:40;28.60;;;25.75;;
52210;SDS011;38179;52.756;6.906;2023-05-07T01:14:06;28.73;;;25.67;;
52210;SDS011;38179;52.756;6.906;2023-05-07T01:16:33;27.65;;;24.77;;
52210;SDS011;38179;52.756;6.906;2023-05-07T01:19:00;27.33;;;24.55;;
52210;SDS011;38179;52.756;6.906;2023-05-07T01:21:26;28.75;;;25.92;;
52210;SDS011;38179;52.756;6.906;2023-05-07T01:23:53;29.15;;;26.25;;
52210;SDS011;38179;52.756;6.906;2023-05-07T01:26:20;28.17;;;25.50;;
52210;SDS011;38179;52.756;6.906;2023-05-07T01:28:47;28.90;;;25.98;;
52210;SDS011;38179;52.756;6.906;2023-05-07T01:31:13;29.27;;;26.17;;
52210;SDS011;38179;52.756;6.906;2023-05-07T01:33:40;28.85;;;25.92;;
52210;SDS011;38179;52.756;6.906;2023-05-07T01:36:08;31.17;;;27.33;;
52210;SDS011;38179;52.756;6.906;2023-05-07T01:38:36;29.55;;;26.70;;
52210;SDS011;38179;52.756;6.906;2023-05-07T01:41:03;30.35;;;27.25;;
52210;SDS011;38179;52.756;6.906;2023-05-07T01:43:30;29.88;;;26.88;;
52210;SDS011;38179;52.756;6.906;2023-05-07T01:45:56;29.77;;;26.88;;
52210;SDS011;38179;52.756;6.906;2023-05-07T01:48:24;29.45;;;26.50;;
52210;SDS011;38179;52.756;6.906;2023-05-07T01:50:50;29.02;;;26.02;;
52210;SDS011;38179;52.756;6.906;2023-05-07T01:53:17;31.77;;;28.38;;
52210;SDS011;38179;52.756;6.906;2023-05-07T01:55:43;30.35;;;27.08;;
52210;SDS011;38179;52.756;6.906;2023-05-07T01:58:10;31.83;;;28.63;;
52210;SDS011;38179;52.756;6.906;2023-05-07T02:00:36;32.00;;;28.73;;
52210;SDS011;38179;52.756;6.906;2023-05-07T02:03:02;31.25;;;27.95;;
52210;SDS011;38179;52.756;6.906;2023-05-07T02:05:27;31.98;;;28.67;;
52210;SDS011;38179;52.756;6.906;2023-05-07T02:07:53;32.05;;;28.55;;
52210;SDS011;38179;52.756;6.906;2023-05-07T02:10:19;35.17;;;29.55;;
52210;SDS011;38179;52.756;6.906;2023-05-07T02:12:45;35.33;;;31.55;;
52210;SDS011;38179;52.756;6.906;2023-05-07T02:15:11;34.70;;;30.50;;
52210;SDS011;38179;52.756;6.906;2023-05-07T02:17:39;32.70;;;29.17;;
52210;SDS011;38179;52.756;6.906;2023-05-07T02:20:33;32.05;;;28.55;;
52210;SDS011;38179;52.756;6.906;2023-05-07T02:22:58;35.55;;;30.17;;
52210;SDS011;38179;52.756;6.906;2023-05-07T02:25:25;32.95;;;29.35;;
52210;SDS011;38179;52.756;6.906;2023-05-07T02:27:51;34.72;;;30.90;;
52210;SDS011;38179;52.756;6.906;2023-05-07T02:30:17;36.58;;;31.02;;
52210;SDS011;38179;52.756;6.906;2023-05-07T02:32:43;35.70;;;30.50;;
52210;SDS011;38179;52.756;6.906;2023-05-07T02:35:09;33.60;;;28.95;;
52210;SDS011;38179;52.756;6.906;2023-05-07T02:37:35;34.55;;;30.90;;
52210;SDS011;38179;52.756;6.906;2023-05-07T02:40:01;35.22;;;30.00;;
52210;SDS011;38179;52.756;6.906;2023-05-07T02:42:28;33.67;;;29.92;;
52210;SDS011;38179;52.756;6.906;2023-05-07T02:44:54;34.72;;;30.20;;
52210;SDS011;38179;52.756;6.906;2023-05-07T02:47:20;35.35;;;30.98;;
52210;SDS011;38179;52.756;6.906;2023-05-07T02:49:46;34.33;;;30.65;;
52210;SDS011;38179;52.756;6.906;2023-05-07T02:52:12;36.65;;;32.75;;
52210;SDS011;38179;52.756;6.906;2023-05-07T02:54:38;37.05;;;32.13;;
52210;SDS011;38179;52.756;6.906;2023-05-07T02:57:04;37.88;;;33.67;;
52210;SDS011;38179;52.756;6.906;2023-05-07T02:59:30;35.20;;;31.30;;
52210;SDS011;38179;52.756;6.906;2023-05-07T03:01:56;36.90;;;31.80;;
52210;SDS011;38179;52.756;6.906;2023-05-07T03:04:21;37.50;;;33.40;;
52210;SDS011;38179;52.756;6.906;2023-05-07T03:06:47;38.25;;;33.13;;
52210;SDS011;38179;52.756;6.906;2023-05-07T03:09:16;42.00;;;34.72;;
52210;SDS011;38179;52.756;6.906;2023-05-07T03:11:42;37.50;;;33.42;;
52210;SDS011;38179;52.756;6.906;2023-05-07T03:14:08;39.80;;;33.95;;
52210;SDS011;38179;52.756;6.906;2023-05-07T03:16:34;39.10;;;34.50;;
52210;SDS011;38179;52.756;6.906;2023-05-07T03:19:00;40.60;;;33.50;;
52210;SDS011;38179;52.756;6.906;2023-05-07T03:21:26;36.85;;;32.80;;
52210;SDS011;38179;52.756;6.906;2023-05-07T03:23:52;38.30;;;33.67;;
52210;SDS011;38179;52.756;6.906;2023-05-07T03:26:18;41.78;;;33.58;;
52210;SDS011;38179;52.756;6.906;2023-05-07T03:28:44;41.38;;;33.67;;
52210;SDS011;38179;52.756;6.906;2023-05-07T03:31:10;36.25;;;31.58;;
52210;SDS011;38179;52.756;6.906;2023-05-07T03:33:37;37.45;;;32.25;;
52210;SDS011;38179;52.756;6.906;2023-05-07T03:36:17;38.03;;;32.15;;
52210;SDS011;38179;52.756;6.906;2023-05-07T03:38:43;38.72;;;32.67;;
52210;SDS011;38179;52.756;6.906;2023-05-07T03:41:09;38.33;;;32.72;;
52210;SDS011;38179;52.756;6.906;2023-05-07T03:43:34;37.30;;;33.20;;
52210;SDS011;38179;52.756;6.906;2023-05-07T03:46:00;38.13;;;32.38;;
52210;SDS011;38179;52.756;6.906;2023-05-07T03:48:26;37.00;;;32.88;;
52210;SDS011;38179;52.756;6.906;2023-05-07T03:50:52;34.85;;;31.15;;
52210;SDS011;38179;52.756;6.906;2023-05-07T03:53:18;38.63;;;32.15;;
52210;SDS011;38179;52.756;6.906;2023-05-07T03:55:44;35.97;;;31.67;;
52210;SDS011;38179;52.756;6.906;2023-05-07T03:58:10;34.85;;;31.10;;
52210;SDS011;38179;52.756;6.906;2023-05-07T04:00:36;35.60;;;31.27;;
52210;SDS011;38179;52.756;6.906;2023-05-07T04:03:05;36.25;;;32.35;;
52210;SDS011;38179;52.756;6.906;2023-05-07T04:05:31;36.40;;;32.05;;
52210;SDS011;38179;52.756;6.906;2023-05-07T04:07:57;35.08;;;30.65;;
52210;SDS011;38179;52.756;6.906;2023-05-07T04:10:24;37.45;;;32.38;;
52210;SDS011;38179;52.756;6.906;2023-05-07T04:12:50;33.50;;;29.77;;
52210;SDS011;38179;52.756;6.906;2023-05-07T04:15:16;35.47;;;31.83;;
52210;SDS011;38179;52.756;6.906;2023-05-07T04:17:42;34.20;;;30.58;;
52210;SDS011;38179;52.756;6.906;2023-05-07T04:20:13;34.08;;;29.75;;
52210;SDS011;38179;52.756;6.906;2023-05-07T04:22:40;34.95;;;30.60;;
52210;SDS011;38179;52.756;6.906;2023-05-07T04:25:07;35.40;;;31.50;;
52210;SDS011;38179;52.756;6.906;2023-05-07T04:27:36;35.70;;;31.83;;
52210;SDS011;38179;52.756;6.906;2023-05-07T04:30:03;35.58;;;30.60;;
52210;SDS011;38179;52.756;6.906;2023-05-07T04:32:29;35.70;;;31.25;;
52210;SDS011;38179;52.756;6.906;2023-05-07T04:34:56;34.70;;;30.55;;
52210;SDS011;38179;52.756;6.906;2023-05-07T04:37:22;31.63;;;28.27;;
52210;SDS011;38179;52.756;6.906;2023-05-07T04:39:48;35.05;;;31.08;;
52210;SDS011;38179;52.756;6.906;2023-05-07T04:42:14;36.72;;;31.48;;
52210;SDS011;38179;52.756;6.906;2023-05-07T04:44:44;34.03;;;30.42;;
52210;SDS011;38179;52.756;6.906;2023-05-07T04:49:38;32.92;;;28.90;;
52210;SDS011;38179;52.756;6.906;2023-05-07T04:52:04;34.60;;;30.88;;
52210;SDS011;38179;52.756;6.906;2023-05-07T04:54:30;33.15;;;29.55;;
52210;SDS011;38179;52.756;6.906;2023-05-07T04:56:56;32.72;;;29.15;;
52210;SDS011;38179;52.756;6.906;2023-05-07T04:59:22;38.58;;;30.30;;
52210;SDS011;38179;52.756;6.906;2023-05-07T05:01:48;33.20;;;29.45;;
52210;SDS011;38179;52.756;6.906;2023-05-07T05:04:13;32.55;;;28.77;;
52210;SDS011;38179;52.756;6.906;2023-05-07T05:06:39;32.20;;;28.80;;
52210;SDS011;38179;52.756;6.906;2023-05-07T05:09:06;33.78;;;30.17;;
52210;SDS011;38179;52.756;6.906;2023-05-07T05:11:32;34.05;;;30.20;;
52210;SDS011;38179;52.756;6.906;2023-05-07T05:13:59;34.83;;;29.67;;
52210;SDS011;38179;52.756;6.906;2023-05-07T05:16:25;33.75;;;30.23;;
52210;SDS011;38179;52.756;6.906;2023-05-07T05:18:51;35.70;;;31.92;;
52210;SDS011;38179;52.756;6.906;2023-05-07T05:21:19;35.13;;;30.73;;
52210;SDS011;38179;52.756;6.906;2023-05-07T05:23:45;34.10;;;30.50;;
52210;SDS011;38179;52.756;6.906;2023-05-07T05:26:11;36.45;;;30.75;;
52210;SDS011;38179;52.756;6.906;2023-05-07T05:28:37;34.83;;;30.08;;
52210;SDS011;38179;52.756;6.906;2023-05-07T05:31:04;33.92;;;30.38;;
52210;SDS011;38179;52.756;6.906;2023-05-07T05:33:30;32.47;;;29.02;;
52210;SDS011;38179;52.756;6.906;2023-05-07T05:35:56;34.53;;;30.83;;
52210;SDS011;38179;52.756;6.906;2023-05-07T05:38:22;34.22;;;30.27;;
52210;SDS011;38179;52.756;6.906;2023-05-07T05:40:48;33.17;;;29.63;;
52210;SDS011;38179;52.756;6.906;2023-05-07T05:43:13;34.00;;;30.45;;
52210;SDS011;38179;52.756;6.906;2023-05-07T05:45:39;33.55;;;30.05;;
52210;SDS011;38179;52.756;6.906;2023-05-07T05:48:05;35.88;;;32.00;;
52210;SDS011;38179;52.756;6.906;2023-05-07T05:50:31;35.17;;;31.35;;
52210;SDS011;38179;52.756;6.906;2023-05-07T05:52:57;35.67;;;30.73;;
52210;SDS011;38179;52.756;6.906;2023-05-07T05:55:23;37.63;;;31.67;;
52210;SDS011;38179;52.756;6.906;2023-05-07T05:57:49;35.25;;;31.48;;
52210;SDS011;38179;52.756;6.906;2023-05-07T06:00:16;35.47;;;31.48;;
52210;SDS011;38179;52.756;6.906;2023-05-07T06:02:42;36.83;;;31.33;;
52210;SDS011;38179;52.756;6.906;2023-05-07T06:05:08;36.95;;;32.92;;
52210;SDS011;38179;52.756;6.906;2023-05-07T06:07:34;38.15;;;31.42;;
52210;SDS011;38179;52.756;6.906;2023-05-07T06:10:00;35.53;;;31.77;;
52210;SDS011;38179;52.756;6.906;2023-05-07T06:12:26;37.75;;;33.25;;
52210;SDS011;38179;52.756;6.906;2023-05-07T06:14:52;40.30;;;34.05;;
52210;SDS011;38179;52.756;6.906;2023-05-07T06:17:18;38.58;;;34.05;;
52210;SDS011;38179;52.756;6.906;2023-05-07T06:19:44;38.42;;;33.70;;
52210;SDS011;38179;52.756;6.906;2023-05-07T06:22:10;37.03;;;31.55;;
52210;SDS011;38179;52.756;6.906;2023-05-07T06:24:36;36.92;;;32.95;;
52210;SDS011;38179;52.756;6.906;2023-05-07T06:27:02;36.45;;;32.63;;
52210;SDS011;38179;52.756;6.906;2023-05-07T06:29:28;38.53;;;32.75;;
52210;SDS011;38179;52.756;6.906;2023-05-07T06:31:56;39.13;;;33.05;;
52210;SDS011;38179;52.756;6.906;2023-05-07T06:34:31;37.35;;;32.58;;
52210;SDS011;38179;52.756;6.906;2023-05-07T06:36:56;38.67;;;34.22;;
52210;SDS011;38179;52.756;6.906;2023-05-07T06:39:23;39.17;;;33.40;;
52210;SDS011;38179;52.756;6.906;2023-05-07T06:41:49;40.33;;;33.25;;
52210;SDS011;38179;52.756;6.906;2023-05-07T06:44:14;40.17;;;34.13;;
52210;SDS011;38179;52.756;6.906;2023-05-07T06:46:40;40.22;;;33.25;;
52210;SDS011;38179;52.756;6.906;2023-05-07T06:49:06;40.03;;;34.00;;
52210;SDS011;38179;52.756;6.906;2023-05-07T06:51:33;37.28;;;32.63;;
52210;SDS011;38179;52.756;6.906;2023-05-07T06:54:00;38.78;;;33.97;;
52210;SDS011;38179;52.756;6.906;2023-05-07T06:56:25;37.97;;;33.38;;
52210;SDS011;38179;52.756;6.906;2023-05-07T06:58:51;42.72;;;35.88;;
52210;SDS011;38179;52.756;6.906;2023-05-07T07:01:17;39.65;;;33.50;;
52210;SDS011;38179;52.756;6.906;2023-05-07T07:03:43;38.75;;;33.35;;
52210;SDS011;38179;52.756;6.906;2023-05-07T07:06:09;37.92;;;33.42;;
52210;SDS011;38179;52.756;6.906;2023-05-07T07:08:35;40.58;;;33.60;;
52210;SDS011;38179;52.756;6.906;2023-05-07T07:11:03;41.38;;;34.03;;
52210;SDS011;38179;52.756;6.906;2023-05-07T07:13:30;39.42;;;35.00;;
52210;SDS011;38179;52.756;6.906;2023-05-07T07:15:56;39.08;;;33.85;;
52210;SDS011;38179;52.756;6.906;2023-05-07T07:18:22;38.92;;;34.03;;
52210;SDS011;38179;52.756;6.906;2023-05-07T07:20:48;38.03;;;33.63;;
52210;SDS011;38179;52.756;6.906;2023-05-07T07:23:14;37.47;;;33.38;;
52210;SDS011;38179;52.756;6.906;2023-05-07T07:25:40;38.70;;;33.17;;
52210;SDS011;38179;52.756;6.906;2023-05-07T07:28:06;38.05;;;33.47;;
52210;SDS011;38179;52.756;6.906;2023-05-07T07:30:32;40.50;;;34.78;;
52210;SDS011;38179;52.756;6.906;2023-05-07T07:32:58;38.15;;;33.47;;
52210;SDS011;38179;52.756;6.906;2023-05-07T07:35:28;39.28;;;34.03;;
52210;SDS011;38179;52.756;6.906;2023-05-07T07:37:55;38.33;;;33.70;;
52210;SDS011;38179;52.756;6.906;2023-05-07T07:40:21;38.60;;;34.45;;
52210;SDS011;38179;52.756;6.906;2023-05-07T07:42:47;35.97;;;32.08;;
52210;SDS011;38179;52.756;6.906;2023-05-07T07:45:13;40.05;;;34.33;;
52210;SDS011;38179;52.756;6.906;2023-05-07T07:47:41;38.88;;;32.97;;
52210;SDS011;38179;52.756;6.906;2023-05-07T07:50:07;38.90;;;33.75;;
52210;SDS011;38179;52.756;6.906;2023-05-07T07:52:34;36.60;;;32.78;;
52210;SDS011;38179;52.756;6.906;2023-05-07T07:55:00;48.00;;;33.65;;
52210;SDS011;38179;52.756;6.906;2023-05-07T07:57:26;37.03;;;33.03;;
52210;SDS011;38179;52.756;6.906;2023-05-07T07:59:52;39.55;;;34.35;;
52210;SDS011;38179;52.756;6.906;2023-05-07T08:02:18;38.20;;;34.17;;
52210;SDS011;38179;52.756;6.906;2023-05-07T08:04:44;36.72;;;32.50;;
52210;SDS011;38179;52.756;6.906;2023-05-07T08:07:10;36.33;;;31.83;;
52210;SDS011;38179;52.756;6.906;2023-05-07T08:09:37;36.47;;;32.58;;
52210;SDS011;38179;52.756;6.906;2023-05-07T08:12:03;38.90;;;32.97;;
52210;SDS011;38179;52.756;6.906;2023-05-07T08:14:30;36.97;;;32.97;;
52210;SDS011;38179;52.756;6.906;2023-05-07T08:16:56;36.20;;;32.28;;
52210;SDS011;38179;52.756;6.906;2023-05-07T08:19:22;36.83;;;32.83;;
52210;SDS011;38179;52.756;6.906;2023-05-07T08:21:48;35.35;;;31.55;;
52210;SDS011;38179;52.756;6.906;2023-05-07T08:24:14;36.10;;;31.83;;
52210;SDS011;38179;52.756;6.906;2023-05-07T08:26:40;35.65;;;31.88;;
52210;SDS011;38179;52.756;6.906;2023-05-07T08:29:06;36.70;;;32.75;;
52210;SDS011;38179;52.756;6.906;2023-05-07T08:31:33;38.00;;;31.88;;
52210;SDS011;38179;52.756;6.906;2023-05-07T08:33:59;36.65;;;32.58;;
52210;SDS011;38179;52.756;6.906;2023-05-07T08:36:25;39.25;;;32.92;;
52210;SDS011;38179;52.756;6.906;2023-05-07T08:38:51;37.13;;;33.28;;
52210;SDS011;38179;52.756;6.906;2023-05-07T08:41:18;35.83;;;31.95;;
52210;SDS011;38179;52.756;6.906;2023-05-07T08:43:47;35.00;;;31.27;;
52210;SDS011;38179;52.756;6.906;2023-05-07T08:46:21;36.33;;;32.53;;
52210;SDS011;38179;52.756;6.906;2023-05-07T08:48:48;36.03;;;32.28;;
52210;SDS011;38179;52.756;6.906;2023-05-07T08:51:18;32.85;;;29.17;;
52210;SDS011;38179;52.756;6.906;2023-05-07T08:53:45;35.10;;;30.92;;
52210;SDS011;38179;52.756;6.906;2023-05-07T08:56:15;34.38;;;30.83;;
52210;SDS011;38179;52.756;6.906;2023-05-07T08:58:42;34.13;;;30.52;;
52210;SDS011;38179;52.756;6.906;2023-05-07T09:01:10;34.25;;;30.85;;
52210;SDS011;38179;52.756;6.906;2023-05-07T09:03:39;33.63;;;30.02;;
52210;SDS011;38179;52.756;6.906;2023-05-07T09:06:06;33.42;;;30.05;;
52210;SDS011;38179;52.756;6.906;2023-05-07T09:08:32;33.40;;;29.95;;
52210;SDS011;38179;52.756;6.906;2023-05-07T09:10:59;33.08;;;29.55;;
52210;SDS011;38179;52.756;6.906;2023-05-07T09:13:25;34.80;;;29.75;;
52210;SDS011;38179;52.756;6.906;2023-05-07T09:15:56;32.97;;;29.58;;
52210;SDS011;38179;52.756;6.906;2023-05-07T09:18:25;33.88;;;30.38;;
52210;SDS011;38179;52.756;6.906;2023-05-07T09:20:51;34.97;;;31.58;;
52210;SDS011;38179;52.756;6.906;2023-05-07T09:23:17;32.58;;;29.20;;
52210;SDS011;38179;52.756;6.906;2023-05-07T09:25:44;31.70;;;28.52;;
52210;SDS011;38179;52.756;6.906;2023-05-07T09:28:10;34.08;;;30.55;;
52210;SDS011;38179;52.756;6.906;2023-05-07T09:30:36;34.53;;;30.92;;
52210;SDS011;38179;52.756;6.906;2023-05-07T09:33:02;34.10;;;30.58;;
52210;SDS011;38179;52.756;6.906;2023-05-07T09:35:29;34.15;;;30.63;;
52210;SDS011;38179;52.756;6.906;2023-05-07T09:37:55;32.70;;;29.40;;
52210;SDS011;38179;52.756;6.906;2023-05-07T09:40:24;31.73;;;28.60;;
52210;SDS011;38179;52.756;6.906;2023-05-07T09:42:51;32.35;;;29.15;;
52210;SDS011;38179;52.756;6.906;2023-05-07T09:45:29;32.88;;;29.58;;
52210;SDS011;38179;52.756;6.906;2023-05-07T09:47:56;32.13;;;28.73;;
52210;SDS011;38179;52.756;6.906;2023-05-07T09:50:25;33.10;;;29.85;;
52210;SDS011;38179;52.756;6.906;2023-05-07T09:52:57;32.25;;;28.95;;
52210;SDS011;38179;52.756;6.906;2023-05-07T09:55:24;32.03;;;28.77;;
52210;SDS011;38179;52.756;6.906;2023-05-07T09:57:51;31.70;;;28.30;;
52210;SDS011;38179;52.756;6.906;2023-05-07T10:00:18;32.10;;;28.80;;
52210;SDS011;38179;52.756;6.906;2023-05-07T10:02:45;30.33;;;27.30;;
52210;SDS011;38179;52.756;6.906;2023-05-07T10:05:14;32.67;;;29.38;;
52210;SDS011;38179;52.756;6.906;2023-05-07T10:07:40;31.70;;;28.50;;
52210;SDS011;38179;52.756;6.906;2023-05-07T10:10:07;32.97;;;29.65;;
52210;SDS011;38179;52.756;6.906;2023-05-07T10:12:33;32.95;;;29.65;;
52210;SDS011;38179;52.756;6.906;2023-05-07T10:15:07;31.65;;;28.55;;
52210;SDS011;38179;52.756;6.906;2023-05-07T10:17:37;32.00;;;28.70;;
52210;SDS011;38179;52.756;6.906;2023-05-07T10:20:04;33.45;;;30.05;;
52210;SDS011;38179;52.756;6.906;2023-05-07T10:22:33;33.10;;;29.70;;
52210;SDS011;38179;52.756;6.906;2023-05-07T10:25:16;32.47;;;29.38;;
52210;SDS011;38179;52.756;6.906;2023-05-07T10:27:48;32.67;;;29.38;;
52210;SDS011;38179;52.756;6.906;2023-05-07T10:30:20;31.50;;;28.55;;
52210;SDS011;38179;52.756;6.906;2023-05-07T10:32:59;32.60;;;29.52;;
52210;SDS011;38179;52.756;6.906;2023-05-07T10:35:31;31.15;;;28.02;;
52210;SDS011;38179;52.756;6.906;2023-05-07T10:38:02;30.33;;;27.20;;
52210;SDS011;38179;52.756;6.906;2023-05-07T10:40:30;31.73;;;28.65;;
52210;SDS011;38179;52.756;6.906;2023-05-07T10:43:00;31.35;;;28.15;;
52210;SDS011;38179;52.756;6.906;2023-05-07T10:45:28;32.83;;;29.52;;
52210;SDS011;38179;52.756;6.906;2023-05-07T10:48:16;32.13;;;28.95;;
52210;SDS011;38179;52.756;6.906;2023-05-07T10:50:43;31.23;;;28.23;;
52210;SDS011;38179;52.756;6.906;2023-05-07T10:55:49;30.30;;;27.38;;
52210;SDS011;38179;52.756;6.906;2023-05-07T10:58:24;31.27;;;28.30;;
52210;SDS011;38179;52.756;6.906;2023-05-07T11:00:55;32.42;;;29.25;;
52210;SDS011;38179;52.756;6.906;2023-05-07T11:03:26;32.38;;;29.23;;
52210;SDS011;38179;52.756;6.906;2023-05-07T11:06:09;32.28;;;29.00;;
52210;SDS011;38179;52.756;6.906;2023-05-07T11:11:17;30.02;;;27.15;;
52210;SDS011;38179;52.756;6.906;2023-05-07T11:13:44;31.60;;;28.63;;
52210;SDS011;38179;52.756;6.906;2023-05-07T11:18:51;32.83;;;29.52;;
52210;SDS011;38179;52.756;6.906;2023-05-07T11:21:37;32.83;;;29.73;;
52210;SDS011;38179;52.756;6.906;2023-05-07T11:24:08;31.58;;;28.63;;
52210;SDS011;38179;52.756;6.906;2023-05-07T11:26:48;31.67;;;28.52;;
52210;SDS011;38179;52.756;6.906;2023-05-07T11:29:18;32.10;;;28.90;;
52210;SDS011;38179;52.756;6.906;2023-05-07T11:31:48;32.00;;;29.00;;
52210;SDS011;38179;52.756;6.906;2023-05-07T11:34:24;32.22;;;29.08;;
52210;SDS011;38179;52.756;6.906;2023-05-07T11:36:51;30.67;;;27.75;;
52210;SDS011;38179;52.756;6.906;2023-05-07T11:39:51;31.40;;;28.50;;
52210;SDS011;38179;52.756;6.906;2023-05-07T11:42:28;30.85;;;27.75;;
52210;SDS011;38179;52.756;6.906;2023-05-07T11:44:56;32.70;;;29.70;;
52210;SDS011;38179;52.756;6.906;2023-05-07T11:47:22;32.15;;;29.08;;
52210;SDS011;38179;52.756;6.906;2023-05-07T11:49:49;32.20;;;29.13;;
52210;SDS011;38179;52.756;6.906;2023-05-07T11:52:16;32.55;;;29.55;;
52210;SDS011;38179;52.756;6.906;2023-05-07T11:54:53;31.65;;;28.55;;
52210;SDS011;38179;52.756;6.906;2023-05-07T11:57:23;31.73;;;28.58;;
52210;SDS011;38179;52.756;6.906;2023-05-07T11:59:56;33.30;;;29.90;;
52210;SDS011;38179;52.756;6.906;2023-05-07T12:02:23;33.55;;;30.50;;
52210;SDS011;38179;52.756;6.906;2023-05-07T12:04:50;31.73;;;28.80;;
52210;SDS011;38179;52.756;6.906;2023-05-07T12:07:17;32.08;;;29.25;;
52210;SDS011;38179;52.756;6.906;2023-05-07T12:09:44;32.67;;;29.73;;
52210;SDS011;38179;52.756;6.906;2023-05-07T12:12:11;32.80;;;29.70;;
52210;SDS011;38179;52.756;6.906;2023-05-07T12:14:39;31.63;;;28.83;;
52210;SDS011;38179;52.756;6.906;2023-05-07T12:17:09;32.60;;;29.73;;
52210;SDS011;38179;52.756;6.906;2023-05-07T12:19:37;31.35;;;28.30;;
52210;SDS011;38179;52.756;6.906;2023-05-07T12:22:04;31.25;;;28.35;;
52210;SDS011;38179;52.756;6.906;2023-05-07T12:24:50;31.52;;;28.50;;
52210;SDS011;38179;52.756;6.906;2023-05-07T12:27:22;32.25;;;29.23;;
52210;SDS011;38179;52.756;6.906;2023-05-07T12:29:49;31.73;;;28.80;;
52210;SDS011;38179;52.756;6.906;2023-05-07T12:32:19;31.05;;;28.30;;
52210;SDS011;38179;52.756;6.906;2023-05-07T12:34:46;30.10;;;27.42;;
52210;SDS011;38179;52.756;6.906;2023-05-07T12:37:16;30.23;;;27.42;;
52210;SDS011;38179;52.756;6.906;2023-05-07T12:39:48;30.73;;;27.85;;
52210;SDS011;38179;52.756;6.906;2023-05-07T12:42:16;30.08;;;27.38;;
52210;SDS011;38179;52.756;6.906;2023-05-07T12:44:45;30.45;;;27.85;;
52210;SDS011;38179;52.756;6.906;2023-05-07T12:47:11;30.27;;;27.55;;
52210;SDS011;38179;52.756;6.906;2023-05-07T12:49:38;30.00;;;27.30;;
52210;SDS011;38179;52.756;6.906;2023-05-07T12:52:05;30.63;;;28.00;;
52210;SDS011;38179;52.756;6.906;2023-05-07T12:54:32;30.92;;;28.20;;
52210;SDS011;38179;52.756;6.906;2023-05-07T12:57:05;29.65;;;27.15;;
52210;SDS011;38179;52.756;6.906;2023-05-07T12:59:41;29.45;;;26.95;;
52210;SDS011;38179;52.756;6.906;2023-05-07T13:02:08;29.48;;;26.98;;
52210;SDS011;38179;52.756;6.906;2023-05-07T13:04:34;29.13;;;26.42;;
52210;SDS011;38179;52.756;6.906;2023-05-07T13:07:01;29.63;;;27.05;;
52210;SDS011;38179;52.756;6.906;2023-05-07T13:09:27;28.40;;;26.00;;
52210;SDS011;38179;52.756;6.906;2023-05-07T13:11:54;28.25;;;25.92;;
52210;SDS011;38179;52.756;6.906;2023-05-07T13:14:20;27.65;;;25.27;;
52210;SDS011;38179;52.756;6.906;2023-05-07T13:16:49;28.90;;;26.50;;
52210;SDS011;38179;52.756;6.906;2023-05-07T13:19:15;27.05;;;24.58;;
52210;SDS011;38179;52.756;6.906;2023-05-07T13:21:40;27.42;;;25.02;;
52210;SDS011;38179;52.756;6.906;2023-05-07T13:24:06;27.38;;;24.98;;
52210;SDS011;38179;52.756;6.906;2023-05-07T13:26:32;28.40;;;26.00;;
52210;SDS011;38179;52.756;6.906;2023-05-07T13:28:58;27.02;;;24.63;;
52210;SDS011;38179;52.756;6.906;2023-05-07T13:31:24;28.40;;;25.83;;
52210;SDS011;38179;52.756;6.906;2023-05-07T13:33:50;29.27;;;26.80;;
52210;SDS011;38179;52.756;6.906;2023-05-07T13:36:17;28.08;;;25.77;;
52210;SDS011;38179;52.756;6.906;2023-05-07T13:38:43;27.98;;;25.33;;
52210;SDS011;38179;52.756;6.906;2023-05-07T13:41:09;28.52;;;26.13;;
52210;SDS011;38179;52.756;6.906;2023-05-07T13:43:35;30.00;;;27.15;;
52210;SDS011;38179;52.756;6.906;2023-05-07T13:46:01;30.33;;;27.42;;
52210;SDS011;38179;52.756;6.906;2023-05-07T13:48:26;29.95;;;27.50;;
52210;SDS011;38179;52.756;6.906;2023-05-07T13:50:53;30.25;;;27.45;;
52210;SDS011;38179;52.756;6.906;2023-05-07T13:53:19;27.83;;;25.48;;
52210;SDS011;38179;52.756;6.906;2023-05-07T13:55:45;30.13;;;27.50;;
52210;SDS011;38179;52.756;6.906;2023-05-07T13:58:12;27.95;;;25.65;;
52210;SDS011;38179;52.756;6.906;2023-05-07T14:00:38;28.60;;;26.20;;
52210;SDS011;38179;52.756;6.906;2023-05-07T14:03:04;28.65;;;26.25;;
52210;SDS011;38179;52.756;6.906;2023-05-07T14:05:30;28.70;;;26.08;;
52210;SDS011;38179;52.756;6.906;2023-05-07T14:07:56;27.83;;;25.40;;
52210;SDS011;38179;52.756;6.906;2023-05-07T14:10:23;26.92;;;24.63;;
52210;SDS011;38179;52.756;6.906;2023-05-07T14:12:49;26.02;;;23.85;;
52210;SDS011;38179;52.756;6.906;2023-05-07T14:15:15;26.27;;;23.73;;
52210;SDS011;38179;52.756;6.906;2023-05-07T14:17:41;27.02;;;24.83;;
52210;SDS011;38179;52.756;6.906;2023-05-07T14:20:08;26.90;;;24.52;;
52210;SDS011;38179;52.756;6.906;2023-05-07T14:22:35;25.95;;;23.83;;
52210;SDS011;38179;52.756;6.906;2023-05-07T14:25:02;25.63;;;23.55;;
52210;SDS011;38179;52.756;6.906;2023-05-07T14:27:29;26.70;;;24.50;;
52210;SDS011;38179;52.756;6.906;2023-05-07T14:29:54;26.17;;;23.98;;
52210;SDS011;38179;52.756;6.906;2023-05-07T14:32:21;25.13;;;22.70;;